createdAt,value
2023-03-18T06:19:23.123Z,57.46
2023-03-18T06:24:29.405Z,54.66
2023-03-18T06:29:39.026Z,53.48
2023-03-18T06:34:52.908Z,57.20
2023-03-18T06:39:59.913Z,56.41
2023-03-18T06:45:07.945Z,59.81
2023-03-18T06:50:25.669Z,55.93
2023-03-18T06:55:31.881Z,56.63
2023-03-18T07:00:38.966Z,54.13
2023-03-18T07:05:47.349Z,55.55
2023-03-18T07:10:57.425Z,52.19
2023-03-18T07:16:06.483Z,55.66
2023-03-18T07:21:11.632Z,55.07
2023-03-18T07:26:18.615Z,55.64
2023-03-18T07:31:25.653Z,52.81
2023-03-18T07:36:30.196Z,52.85
2023-03-18T07:41:37.808Z,49.39
2023-03-18T07:46:45.424Z,48.73
2023-03-18T07:51:49.872Z,46.25
2023-03-18T07:56:54.650Z,43.33
2023-03-18T08:02:00.372Z,43.34
2023-03-18T08:07:04.785Z,41.51
2023-03-18T08:12:09.953Z,42.31
2023-03-18T08:17:15.937Z,41.78
2023-03-18T08:22:24.213Z,42.18
2023-03-18T08:27:28.342Z,42.04
2023-03-18T08:32:34.197Z,40.90
2023-03-18T08:37:38.534Z,40.92
2023-03-18T08:42:42.531Z,41.99
2023-03-18T08:47:48.546Z,40.81
2023-03-18T08:52:52.567Z,40.60
2023-03-18T08:57:56.733Z,39.21
2023-03-18T09:03:02.875Z,38.93
2023-03-18T09:08:07.895Z,38.56
2023-03-18T09:13:12.675Z,37.26
2023-03-18T09:18:19.526Z,37.42
2023-03-18T09:23:23.842Z,38.16
2023-03-18T09:28:28.408Z,37.86
2023-03-18T09:33:45.666Z,37.68
2023-03-18T09:38:50.067Z,37.33
2023-03-18T09:44:03.488Z,36.80
2023-03-18T09:49:31.644Z,36.75
2023-03-18T09:54:41.388Z,34.93
2023-03-18T09:59:48.838Z,36.62
2023-03-18T10:04:58.166Z,35.55
2023-03-18T10:10:08.625Z,35.53
2023-03-18T10:15:19.278Z,35.84
2023-03-18T10:20:35.197Z,34.67
2023-03-18T10:25:44.996Z,36.16
2023-03-18T10:30:57.782Z,34.03
2023-03-18T10:36:10.418Z,35.77
2023-03-18T10:41:18.780Z,35.55
2023-03-18T10:46:23.694Z,35.60
2023-03-18T10:51:35.794Z,33.84
2023-03-18T10:56:40.372Z,34.54
2023-03-18T11:01:50.029Z,34.38
2023-03-18T11:06:59.613Z,33.92
2023-03-18T11:12:05.877Z,33.24
2023-03-18T11:17:22.126Z,33.16
2023-03-18T11:22:29.187Z,33.17
2023-03-18T11:27:40.648Z,32.07
2023-03-18T11:32:56.741Z,32.15
2023-03-18T11:38:05.642Z,32.23
2023-03-18T11:43:20.119Z,31.55
2023-03-18T11:48:35.788Z,32.03
2023-03-18T11:53:52.749Z,31.49
2023-03-18T11:59:14.056Z,30.24
2023-03-18T12:04:38.932Z,28.00
2023-03-18T12:09:56.974Z,28.30
2023-03-18T12:15:06.844Z,27.33
2023-03-18T12:20:48.252Z,24.99
2023-03-18T12:26:02.211Z,24.17
2023-03-18T12:31:24.022Z,25.76
2023-03-18T12:36:39.790Z,26.11
2023-03-18T12:42:02.568Z,24.71
2023-03-18T12:47:10.581Z,24.14
2023-03-18T12:52:27.538Z,24.92
2023-03-18T12:57:42.212Z,26.26
2023-03-18T13:02:54.271Z,25.02
2023-03-18T13:08:27.805Z,24.36
2023-03-18T13:13:38.445Z,24.09
2023-03-18T13:18:46.401Z,24.81
2023-03-18T13:24:22.042Z,25.41
2023-03-18T13:29:36.460Z,24.10
2023-03-18T13:35:02.581Z,25.46
2023-03-18T13:40:16.031Z,25.02
2023-03-18T13:45:28.057Z,24.50
2023-03-18T13:50:35.702Z,25.56
2023-03-18T13:55:47.702Z,25.58
2023-03-18T14:01:28.785Z,26.33
2023-03-18T14:06:53.923Z,24.67
2023-03-18T14:12:05.051Z,24.27
2023-03-18T14:17:19.518Z,24.60
2023-03-18T14:22:27.925Z,25.44
2023-03-18T14:27:32.078Z,25.37
2023-03-18T14:32:41.760Z,24.83
2023-03-18T14:38:02.694Z,25.48
2023-03-18T14:43:11.762Z,26.33
2023-03-18T14:48:21.769Z,24.91
2023-03-18T14:53:32.237Z,24.50
2023-03-18T14:58:36.504Z,23.88
2023-03-18T15:03:44.947Z,24.62
2023-03-18T15:08:52.634Z,24.57
2023-03-18T15:14:00.137Z,24.11
2023-03-18T15:19:06.940Z,25.20
2023-03-18T15:24:17.059Z,25.10
2023-03-18T15:29:31.529Z,24.85
2023-03-18T15:34:39.604Z,24.75
2023-03-18T15:39:44.141Z,25.56
2023-03-18T15:44:56.149Z,25.54
2023-03-18T15:50:09.643Z,26.51
2023-03-18T15:55:29.377Z,27.39
2023-03-18T16:00:34.809Z,27.06
2023-03-18T16:05:40.380Z,27.31
2023-03-18T16:10:46.878Z,26.80
2023-03-18T16:15:51.408Z,27.39
2023-03-18T16:20:57.440Z,28.37
2023-03-18T16:26:02.237Z,30.54
2023-03-18T16:31:07.116Z,30.78
2023-03-18T16:36:25.214Z,32.00
2023-03-18T16:41:29.699Z,32.96
2023-03-18T16:46:34.120Z,33.77
2023-03-18T16:51:41.356Z,33.88
2023-03-18T16:56:45.484Z,35.02
2023-03-18T17:01:49.610Z,36.45
2023-03-18T17:06:57.998Z,36.27
2023-03-18T17:12:07.618Z,37.12
2023-03-18T17:17:19.267Z,37.76
2023-03-18T17:22:30.602Z,39.04
2023-03-18T17:27:40.914Z,39.59
2023-03-18T17:32:47.779Z,39.44
2023-03-18T17:37:54.817Z,38.45
2023-03-18T17:42:59.129Z,38.68
2023-03-18T17:48:15.946Z,38.46
2023-03-18T17:53:35.405Z,39.25
2023-03-18T17:58:44.992Z,39.92
2023-03-18T18:03:49.736Z,40.19
2023-03-18T18:08:59.143Z,40.04
2023-03-18T18:14:13.254Z,41.28
2023-03-18T18:19:17.654Z,41.38
2023-03-18T18:24:24.864Z,42.83
2023-03-18T18:29:31.427Z,41.61
2023-03-18T18:34:36.354Z,41.59
2023-03-18T18:39:42.690Z,41.64
2023-03-18T18:44:47.286Z,42.01
2023-03-18T18:49:52.070Z,41.66
2023-03-18T18:54:58.058Z,42.72
2023-03-18T19:00:02.384Z,43.07
2023-03-18T19:05:08.218Z,43.90
2023-03-18T19:10:15.988Z,44.88
2023-03-18T19:15:21.707Z,44.48
2023-03-18T19:20:30.022Z,44.03
2023-03-18T19:25:35.809Z,44.92
2023-03-18T19:30:40.058Z,43.79
2023-03-18T19:35:45.118Z,45.25
2023-03-18T19:40:52.924Z,46.35
2023-03-18T19:45:57.235Z,44.45
2023-03-18T19:51:01.513Z,45.25
2023-03-18T19:56:17.641Z,45.69
2023-03-18T20:01:23.054Z,45.91
2023-03-18T20:06:27.697Z,45.03
2023-03-18T20:11:33.493Z,45.27
2023-03-18T20:16:37.697Z,46.22
2023-03-18T20:21:42.323Z,45.42
2023-03-18T20:26:48.103Z,45.26
2023-03-18T20:31:52.283Z,45.67
2023-03-18T20:36:56.504Z,45.39
2023-03-18T20:42:02.046Z,45.31
2023-03-18T20:47:06.497Z,45.09
2023-03-18T20:52:24.412Z,42.71
2023-03-18T20:57:30.292Z,44.28
2023-03-18T21:02:35.137Z,44.73
2023-03-18T21:07:39.889Z,45.37
2023-03-18T21:12:46.014Z,44.87
2023-03-18T21:17:50.543Z,45.19
2023-03-18T21:22:56.246Z,46.41
2023-03-18T21:28:02.230Z,46.33
2023-03-18T21:33:18.835Z,46.21
2023-03-18T21:38:22.987Z,47.12
2023-03-18T21:43:34.085Z,47.48
2023-03-18T21:48:38.354Z,47.75
2023-03-18T21:53:42.526Z,46.64
2023-03-18T21:58:48.309Z,46.42
2023-03-18T22:03:53.969Z,46.70
2023-03-18T22:08:58.873Z,46.22
2023-03-18T22:14:04.923Z,46.55
2023-03-18T22:19:08.954Z,47.19
2023-03-18T22:24:15.718Z,46.26
2023-03-18T22:29:24.257Z,46.29
2023-03-18T22:34:28.423Z,47.07
2023-03-18T22:39:32.394Z,50.27
2023-03-18T22:44:38.235Z,53.22
2023-03-18T22:49:42.384Z,53.23
2023-03-18T22:54:46.739Z,52.96
2023-03-18T22:59:52.591Z,55.85
2023-03-18T23:04:57.620Z,57.78
2023-03-18T23:10:04.794Z,58.34
2023-03-18T23:15:17.237Z,59.56
2023-03-18T23:20:21.541Z,59.12
2023-03-18T23:25:26.002Z,59.34
2023-03-18T23:30:32.258Z,60.51
2023-03-18T23:35:37.659Z,60.43
2023-03-18T23:40:41.991Z,60.45
2023-03-18T23:45:47.556Z,59.89
2023-03-18T23:50:51.641Z,61.22
2023-03-18T23:55:56.008Z,59.65
